sensor_id;sensor_type;location;lat;lon;timestamp;P1;durP1;ratioP1;P2;durP2;ratioP2
57663;SDS011;43493;53.098;6.064;2024-01-16T00:01:15;7.25;;;1.20;;
57663;SDS011;43493;53.098;6.064;2024-01-16T00:03:41;9.63;;;1.20;;
57663;SDS011;43493;53.098;6.064;2024-01-16T00:06:07;6.60;;;1.00;;
57663;SDS011;43493;53.098;6.064;2024-01-16T00:08:33;9.67;;;1.27;;
57663;SDS011;43493;53.098;6.064;2024-01-16T00:10:58;4.60;;;0.90;;
57663;SDS011;43493;53.098;6.064;2024-01-16T00:13:26;5.05;;;0.93;;
57663;SDS011;43493;53.098;6.064;2024-01-16T00:15:52;5.40;;;0.90;;
57663;SDS011;43493;53.098;6.064;2024-01-16T00:18:18;11.70;;;1.37;;
57663;SDS011;43493;53.098;6.064;2024-01-16T00:20:44;8.90;;;1.43;;
57663;SDS011;43493;53.098;6.064;2024-01-16T00:23:09;7.23;;;1.27;;
57663;SDS011;43493;53.098;6.064;2024-01-16T00:25:35;8.33;;;1.20;;
57663;SDS011;43493;53.098;6.064;2024-01-16T00:28:01;8.17;;;1.20;;
57663;SDS011;43493;53.098;6.064;2024-01-16T00:30:27;8.35;;;1.33;;
57663;SDS011;43493;53.098;6.064;2024-01-16T00:32:54;13.25;;;1.90;;
57663;SDS011;43493;53.098;6.064;2024-01-16T00:35:20;8.93;;;1.13;;
57663;SDS011;43493;53.098;6.064;2024-01-16T00:37:46;7.77;;;1.50;;
57663;SDS011;43493;53.098;6.064;2024-01-16T00:40:11;10.53;;;2.10;;
57663;SDS011;43493;53.098;6.064;2024-01-16T00:42:37;11.00;;;1.30;;
57663;SDS011;43493;53.098;6.064;2024-01-16T00:45:03;7.80;;;1.37;;
57663;SDS011;43493;53.098;6.064;2024-01-16T00:47:29;9.77;;;1.42;;
57663;SDS011;43493;53.098;6.064;2024-01-16T00:49:55;12.87;;;1.37;;
57663;SDS011;43493;53.098;6.064;2024-01-16T00:52:21;9.97;;;1.20;;
57663;SDS011;43493;53.098;6.064;2024-01-16T00:54:46;6.23;;;1.10;;
57663;SDS011;43493;53.098;6.064;2024-01-16T00:57:12;7.38;;;1.00;;
57663;SDS011;43493;53.098;6.064;2024-01-16T00:59:40;9.02;;;1.20;;
57663;SDS011;43493;53.098;6.064;2024-01-16T01:02:06;10.37;;;1.10;;
57663;SDS011;43493;53.098;6.064;2024-01-16T01:04:34;6.93;;;1.10;;
57663;SDS011;43493;53.098;6.064;2024-01-16T01:07:00;8.93;;;1.17;;
57663;SDS011;43493;53.098;6.064;2024-01-16T01:09:26;7.90;;;2.10;;
57663;SDS011;43493;53.098;6.064;2024-01-16T01:11:52;11.87;;;1.53;;
57663;SDS011;43493;53.098;6.064;2024-01-16T01:14:17;11.10;;;1.97;;
57663;SDS011;43493;53.098;6.064;2024-01-16T01:16:43;6.70;;;1.20;;
57663;SDS011;43493;53.098;6.064;2024-01-16T01:19:09;8.87;;;1.50;;
57663;SDS011;43493;53.098;6.064;2024-01-16T01:21:35;8.23;;;1.60;;
57663;SDS011;43493;53.098;6.064;2024-01-16T01:24:01;13.43;;;2.30;;
57663;SDS011;43493;53.098;6.064;2024-01-16T01:26:26;11.10;;;1.70;;
57663;SDS011;43493;53.098;6.064;2024-01-16T01:28:52;11.33;;;1.90;;
57663;SDS011;43493;53.098;6.064;2024-01-16T01:31:18;17.57;;;2.10;;
57663;SDS011;43493;53.098;6.064;2024-01-16T01:33:43;13.00;;;1.83;;
57663;SDS011;43493;53.098;6.064;2024-01-16T01:36:09;12.10;;;1.50;;
57663;SDS011;43493;53.098;6.064;2024-01-16T01:38:35;10.70;;;1.63;;
57663;SDS011;43493;53.098;6.064;2024-01-16T01:41:01;8.60;;;1.47;;
57663;SDS011;43493;53.098;6.064;2024-01-16T01:43:26;13.03;;;1.90;;
57663;SDS011;43493;53.098;6.064;2024-01-16T01:46:34;9.83;;;1.43;;
57663;SDS011;43493;53.098;6.064;2024-01-16T01:48:43;13.88;;;2.95;;
57663;SDS011;43493;53.098;6.064;2024-01-16T01:51:10;13.40;;;3.03;;
57663;SDS011;43493;53.098;6.064;2024-01-16T01:53:38;8.15;;;2.03;;
57663;SDS011;43493;53.098;6.064;2024-01-16T01:56:05;8.10;;;1.42;;
57663;SDS011;43493;53.098;6.064;2024-01-16T01:58:34;9.65;;;1.55;;
57663;SDS011;43493;53.098;6.064;2024-01-16T02:01:03;14.88;;;1.80;;
57663;SDS011;43493;53.098;6.064;2024-01-16T02:03:32;19.73;;;3.13;;
57663;SDS011;43493;53.098;6.064;2024-01-16T02:06:06;12.35;;;3.13;;
57663;SDS011;43493;53.098;6.064;2024-01-16T02:08:32;11.85;;;2.17;;
57663;SDS011;43493;53.098;6.064;2024-01-16T02:10:58;11.10;;;2.20;;
57663;SDS011;43493;53.098;6.064;2024-01-16T02:13:24;16.17;;;2.10;;
57663;SDS011;43493;53.098;6.064;2024-01-16T02:15:50;16.57;;;2.50;;
57663;SDS011;43493;53.098;6.064;2024-01-16T02:18:16;10.88;;;1.90;;
57663;SDS011;43493;53.098;6.064;2024-01-16T02:20:43;13.88;;;2.28;;
57663;SDS011;43493;53.098;6.064;2024-01-16T02:23:09;11.40;;;1.70;;
57663;SDS011;43493;53.098;6.064;2024-01-16T02:25:37;9.02;;;1.58;;
57663;SDS011;43493;53.098;6.064;2024-01-16T02:28:04;14.10;;;2.83;;
57663;SDS011;43493;53.098;6.064;2024-01-16T02:30:30;15.27;;;1.80;;
57663;SDS011;43493;53.098;6.064;2024-01-16T02:32:56;12.97;;;1.83;;
57663;SDS011;43493;53.098;6.064;2024-01-16T02:35:21;9.23;;;1.60;;
57663;SDS011;43493;53.098;6.064;2024-01-16T02:37:47;10.77;;;1.70;;
57663;SDS011;43493;53.098;6.064;2024-01-16T02:40:13;12.93;;;2.00;;
57663;SDS011;43493;53.098;6.064;2024-01-16T02:42:38;12.60;;;2.47;;
57663;SDS011;43493;53.098;6.064;2024-01-16T02:45:05;12.57;;;1.30;;
57663;SDS011;43493;53.098;6.064;2024-01-16T02:47:31;11.15;;;1.50;;
57663;SDS011;43493;53.098;6.064;2024-01-16T02:49:58;13.25;;;2.25;;
57663;SDS011;43493;53.098;6.064;2024-01-16T02:52:25;14.23;;;1.80;;
57663;SDS011;43493;53.098;6.064;2024-01-16T02:54:50;14.97;;;1.80;;
57663;SDS011;43493;53.098;6.064;2024-01-16T02:57:16;14.17;;;2.07;;
57663;SDS011;43493;53.098;6.064;2024-01-16T02:59:45;7.60;;;1.63;;
57663;SDS011;43493;53.098;6.064;2024-01-16T03:02:11;10.40;;;1.88;;
57663;SDS011;43493;53.098;6.064;2024-01-16T03:04:38;11.68;;;1.65;;
57663;SDS011;43493;53.098;6.064;2024-01-16T03:07:04;9.68;;;1.40;;
57663;SDS011;43493;53.098;6.064;2024-01-16T03:09:30;13.52;;;2.65;;
57663;SDS011;43493;53.098;6.064;2024-01-16T03:11:56;13.43;;;1.52;;
57663;SDS011;43493;53.098;6.064;2024-01-16T03:14:23;9.27;;;1.30;;
57663;SDS011;43493;53.098;6.064;2024-01-16T03:16:48;8.33;;;1.20;;
57663;SDS011;43493;53.098;6.064;2024-01-16T03:19:14;8.93;;;1.30;;
57663;SDS011;43493;53.098;6.064;2024-01-16T03:21:40;10.60;;;1.52;;
57663;SDS011;43493;53.098;6.064;2024-01-16T03:24:06;11.00;;;1.50;;
57663;SDS011;43493;53.098;6.064;2024-01-16T03:26:32;10.23;;;1.63;;
57663;SDS011;43493;53.098;6.064;2024-01-16T03:28:58;9.80;;;1.30;;
57663;SDS011;43493;53.098;6.064;2024-01-16T03:31:24;11.55;;;1.60;;
57663;SDS011;43493;53.098;6.064;2024-01-16T03:33:50;8.30;;;1.52;;
57663;SDS011;43493;53.098;6.064;2024-01-16T03:36:16;13.10;;;1.30;;
57663;SDS011;43493;53.098;6.064;2024-01-16T03:38:42;9.50;;;2.17;;
57663;SDS011;43493;53.098;6.064;2024-01-16T03:41:10;13.85;;;1.85;;
57663;SDS011;43493;53.098;6.064;2024-01-16T03:43:36;9.55;;;1.35;;
57663;SDS011;43493;53.098;6.064;2024-01-16T03:46:02;12.17;;;2.03;;
57663;SDS011;43493;53.098;6.064;2024-01-16T03:48:28;7.93;;;1.77;;
57663;SDS011;43493;53.098;6.064;2024-01-16T03:50:55;10.53;;;1.43;;
57663;SDS011;43493;53.098;6.064;2024-01-16T03:53:21;10.82;;;1.42;;
57663;SDS011;43493;53.098;6.064;2024-01-16T03:55:47;10.63;;;1.30;;
57663;SDS011;43493;53.098;6.064;2024-01-16T03:58:15;8.23;;;1.60;;
57663;SDS011;43493;53.098;6.064;2024-01-16T04:00:41;8.48;;;1.13;;
57663;SDS011;43493;53.098;6.064;2024-01-16T04:03:06;11.37;;;1.90;;
57663;SDS011;43493;53.098;6.064;2024-01-16T04:05:33;13.60;;;1.73;;
57663;SDS011;43493;53.098;6.064;2024-01-16T04:07:58;9.35;;;2.60;;
57663;SDS011;43493;53.098;6.064;2024-01-16T04:10:24;9.45;;;1.42;;
57663;SDS011;43493;53.098;6.064;2024-01-16T04:12:50;9.33;;;1.40;;
57663;SDS011;43493;53.098;6.064;2024-01-16T04:15:16;9.63;;;1.30;;
57663;SDS011;43493;53.098;6.064;2024-01-16T04:17:42;9.77;;;1.63;;
57663;SDS011;43493;53.098;6.064;2024-01-16T04:20:08;11.67;;;1.77;;
57663;SDS011;43493;53.098;6.064;2024-01-16T04:22:34;12.25;;;1.45;;
57663;SDS011;43493;53.098;6.064;2024-01-16T04:25:00;16.27;;;1.75;;
57663;SDS011;43493;53.098;6.064;2024-01-16T04:27:26;10.10;;;1.30;;
57663;SDS011;43493;53.098;6.064;2024-01-16T04:29:52;8.43;;;1.50;;
57663;SDS011;43493;53.098;6.064;2024-01-16T04:32:18;10.75;;;1.30;;
57663;SDS011;43493;53.098;6.064;2024-01-16T04:34:44;9.80;;;1.73;;
57663;SDS011;43493;53.098;6.064;2024-01-16T04:37:10;11.80;;;1.60;;
57663;SDS011;43493;53.098;6.064;2024-01-16T04:39:36;6.90;;;1.40;;
57663;SDS011;43493;53.098;6.064;2024-01-16T04:42:02;11.07;;;1.40;;
57663;SDS011;43493;53.098;6.064;2024-01-16T04:44:27;13.43;;;1.70;;
57663;SDS011;43493;53.098;6.064;2024-01-16T04:46:53;12.00;;;2.30;;
57663;SDS011;43493;53.098;6.064;2024-01-16T04:49:19;10.50;;;2.20;;
57663;SDS011;43493;53.098;6.064;2024-01-16T04:51:44;11.00;;;2.00;;
57663;SDS011;43493;53.098;6.064;2024-01-16T04:54:11;9.63;;;1.60;;
57663;SDS011;43493;53.098;6.064;2024-01-16T04:56:37;11.15;;;2.30;;
57663;SDS011;43493;53.098;6.064;2024-01-16T04:59:03;13.13;;;1.50;;
57663;SDS011;43493;53.098;6.064;2024-01-16T05:01:28;14.87;;;2.30;;
57663;SDS011;43493;53.098;6.064;2024-01-16T05:03:54;18.67;;;2.10;;
57663;SDS011;43493;53.098;6.064;2024-01-16T05:06:20;11.80;;;1.70;;
57663;SDS011;43493;53.098;6.064;2024-01-16T05:08:46;18.77;;;2.95;;
57663;SDS011;43493;53.098;6.064;2024-01-16T05:11:12;7.50;;;1.53;;
57663;SDS011;43493;53.098;6.064;2024-01-16T05:13:38;21.13;;;2.37;;
57663;SDS011;43493;53.098;6.064;2024-01-16T05:16:03;12.40;;;1.53;;
57663;SDS011;43493;53.098;6.064;2024-01-16T05:18:29;24.30;;;2.45;;
57663;SDS011;43493;53.098;6.064;2024-01-16T05:20:57;9.60;;;2.47;;
57663;SDS011;43493;53.098;6.064;2024-01-16T05:23:23;12.93;;;2.03;;
57663;SDS011;43493;53.098;6.064;2024-01-16T05:25:49;11.40;;;1.80;;
57663;SDS011;43493;53.098;6.064;2024-01-16T05:28:15;15.47;;;2.10;;
57663;SDS011;43493;53.098;6.064;2024-01-16T05:30:40;12.60;;;1.70;;
57663;SDS011;43493;53.098;6.064;2024-01-16T05:33:07;12.70;;;1.90;;
57663;SDS011;43493;53.098;6.064;2024-01-16T05:35:33;16.35;;;2.22;;
57663;SDS011;43493;53.098;6.064;2024-01-16T05:37:59;17.23;;;2.10;;
57663;SDS011;43493;53.098;6.064;2024-01-16T05:40:25;16.07;;;2.27;;
57663;SDS011;43493;53.098;6.064;2024-01-16T05:42:51;15.27;;;2.53;;
57663;SDS011;43493;53.098;6.064;2024-01-16T05:45:17;11.63;;;1.57;;
57663;SDS011;43493;53.098;6.064;2024-01-16T05:47:43;14.15;;;1.75;;
57663;SDS011;43493;53.098;6.064;2024-01-16T05:50:09;11.50;;;2.27;;
57663;SDS011;43493;53.098;6.064;2024-01-16T05:52:35;11.70;;;1.67;;
57663;SDS011;43493;53.098;6.064;2024-01-16T05:55:01;15.32;;;2.22;;
57663;SDS011;43493;53.098;6.064;2024-01-16T05:57:28;14.05;;;1.77;;
57663;SDS011;43493;53.098;6.064;2024-01-16T05:59:56;8.73;;;1.33;;
57663;SDS011;43493;53.098;6.064;2024-01-16T06:02:22;11.60;;;2.15;;
57663;SDS011;43493;53.098;6.064;2024-01-16T06:04:48;9.33;;;1.80;;
57663;SDS011;43493;53.098;6.064;2024-01-16T06:07:14;10.73;;;2.20;;
57663;SDS011;43493;53.098;6.064;2024-01-16T06:09:39;11.73;;;2.50;;
57663;SDS011;43493;53.098;6.064;2024-01-16T06:12:06;11.50;;;3.40;;
57663;SDS011;43493;53.098;6.064;2024-01-16T06:14:32;10.27;;;3.80;;
57663;SDS011;43493;53.098;6.064;2024-01-16T06:16:58;16.85;;;4.80;;
57663;SDS011;43493;53.098;6.064;2024-01-16T06:19:24;15.80;;;6.40;;
57663;SDS011;43493;53.098;6.064;2024-01-16T06:21:50;20.13;;;15.03;;
57663;SDS011;43493;53.098;6.064;2024-01-16T06:24:15;20.43;;;12.33;;
57663;SDS011;43493;53.098;6.064;2024-01-16T06:26:41;19.13;;;6.80;;
57663;SDS011;43493;53.098;6.064;2024-01-16T06:29:07;14.53;;;5.10;;
57663;SDS011;43493;53.098;6.064;2024-01-16T06:31:33;11.88;;;4.30;;
57663;SDS011;43493;53.098;6.064;2024-01-16T06:33:59;14.10;;;3.00;;
57663;SDS011;43493;53.098;6.064;2024-01-16T06:36:25;11.82;;;2.45;;
57663;SDS011;43493;53.098;6.064;2024-01-16T06:38:51;12.03;;;2.33;;
57663;SDS011;43493;53.098;6.064;2024-01-16T06:41:16;12.27;;;1.70;;
57663;SDS011;43493;53.098;6.064;2024-01-16T06:43:42;8.37;;;2.20;;
57663;SDS011;43493;53.098;6.064;2024-01-16T06:46:08;11.33;;;2.00;;
57663;SDS011;43493;53.098;6.064;2024-01-16T06:48:36;13.60;;;1.73;;
57663;SDS011;43493;53.098;6.064;2024-01-16T06:51:03;7.93;;;1.67;;
57663;SDS011;43493;53.098;6.064;2024-01-16T06:53:29;12.07;;;1.48;;
57663;SDS011;43493;53.098;6.064;2024-01-16T06:55:55;8.13;;;1.37;;
57663;SDS011;43493;53.098;6.064;2024-01-16T06:58:21;10.83;;;1.50;;
57663;SDS011;43493;53.098;6.064;2024-01-16T07:00:47;9.10;;;1.97;;
57663;SDS011;43493;53.098;6.064;2024-01-16T07:03:13;11.35;;;1.83;;
57663;SDS011;43493;53.098;6.064;2024-01-16T07:05:39;12.73;;;2.57;;
57663;SDS011;43493;53.098;6.064;2024-01-16T07:08:08;11.30;;;2.25;;
57663;SDS011;43493;53.098;6.064;2024-01-16T07:10:34;9.95;;;1.65;;
57663;SDS011;43493;53.098;6.064;2024-01-16T07:13:00;11.20;;;1.90;;
57663;SDS011;43493;53.098;6.064;2024-01-16T07:15:27;9.82;;;1.60;;
57663;SDS011;43493;53.098;6.064;2024-01-16T07:17:53;12.63;;;2.60;;
57663;SDS011;43493;53.098;6.064;2024-01-16T07:20:19;8.60;;;1.70;;
57663;SDS011;43493;53.098;6.064;2024-01-16T07:22:45;8.32;;;1.60;;
57663;SDS011;43493;53.098;6.064;2024-01-16T07:25:11;6.57;;;1.50;;
57663;SDS011;43493;53.098;6.064;2024-01-16T07:27:36;9.50;;;1.90;;
57663;SDS011;43493;53.098;6.064;2024-01-16T07:30:06;12.00;;;2.13;;
57663;SDS011;43493;53.098;6.064;2024-01-16T07:32:32;8.80;;;1.60;;
57663;SDS011;43493;53.098;6.064;2024-01-16T07:34:58;6.72;;;1.75;;
57663;SDS011;43493;53.098;6.064;2024-01-16T07:37:24;14.33;;;3.10;;
57663;SDS011;43493;53.098;6.064;2024-01-16T07:39:50;8.37;;;1.97;;
57663;SDS011;43493;53.098;6.064;2024-01-16T07:42:16;10.80;;;1.73;;
57663;SDS011;43493;53.098;6.064;2024-01-16T07:44:41;11.10;;;1.80;;
57663;SDS011;43493;53.098;6.064;2024-01-16T07:47:07;23.13;;;8.67;;
57663;SDS011;43493;53.098;6.064;2024-01-16T07:49:33;20.13;;;10.63;;
57663;SDS011;43493;53.098;6.064;2024-01-16T07:51:59;10.55;;;3.20;;
57663;SDS011;43493;53.098;6.064;2024-01-16T07:54:25;10.60;;;2.47;;
57663;SDS011;43493;53.098;6.064;2024-01-16T07:56:51;8.13;;;1.93;;
57663;SDS011;43493;53.098;6.064;2024-01-16T07:59:17;10.40;;;2.20;;
57663;SDS011;43493;53.098;6.064;2024-01-16T08:01:43;10.57;;;1.67;;
57663;SDS011;43493;53.098;6.064;2024-01-16T08:04:09;12.18;;;1.90;;
57663;SDS011;43493;53.098;6.064;2024-01-16T08:06:34;6.07;;;1.40;;
57663;SDS011;43493;53.098;6.064;2024-01-16T08:09:00;10.27;;;1.40;;
57663;SDS011;43493;53.098;6.064;2024-01-16T08:11:26;12.93;;;2.17;;
57663;SDS011;43493;53.098;6.064;2024-01-16T08:13:52;8.93;;;1.97;;
57663;SDS011;43493;53.098;6.064;2024-01-16T08:16:17;7.47;;;1.57;;
57663;SDS011;43493;53.098;6.064;2024-01-16T08:18:43;10.47;;;1.60;;
57663;SDS011;43493;53.098;6.064;2024-01-16T08:21:09;12.13;;;1.70;;
57663;SDS011;43493;53.098;6.064;2024-01-16T08:23:34;5.33;;;1.17;;
57663;SDS011;43493;53.098;6.064;2024-01-16T08:26:00;9.27;;;1.30;;
57663;SDS011;43493;53.098;6.064;2024-01-16T08:28:26;12.27;;;1.83;;
57663;SDS011;43493;53.098;6.064;2024-01-16T08:30:52;12.45;;;1.50;;
57663;SDS011;43493;53.098;6.064;2024-01-16T08:33:18;9.63;;;1.63;;
57663;SDS011;43493;53.098;6.064;2024-01-16T08:35:44;10.40;;;1.33;;
57663;SDS011;43493;53.098;6.064;2024-01-16T08:38:10;10.27;;;1.60;;
57663;SDS011;43493;53.098;6.064;2024-01-16T08:40:36;6.60;;;1.03;;
57663;SDS011;43493;53.098;6.064;2024-01-16T08:43:01;6.93;;;1.77;;
57663;SDS011;43493;53.098;6.064;2024-01-16T08:45:28;7.75;;;1.17;;
57663;SDS011;43493;53.098;6.064;2024-01-16T08:47:54;8.15;;;1.42;;
57663;SDS011;43493;53.098;6.064;2024-01-16T08:50:20;5.23;;;1.23;;
57663;SDS011;43493;53.098;6.064;2024-01-16T08:52:46;7.97;;;1.13;;
57663;SDS011;43493;53.098;6.064;2024-01-16T08:55:11;9.67;;;1.93;;
57663;SDS011;43493;53.098;6.064;2024-01-16T08:57:37;5.07;;;1.10;;
57663;SDS011;43493;53.098;6.064;2024-01-16T09:00:06;10.17;;;1.40;;
57663;SDS011;43493;53.098;6.064;2024-01-16T09:02:34;10.05;;;1.30;;
57663;SDS011;43493;53.098;6.064;2024-01-16T09:05:00;10.00;;;1.40;;
57663;SDS011;43493;53.098;6.064;2024-01-16T09:07:26;21.50;;;7.00;;
57663;SDS011;43493;53.098;6.064;2024-01-16T09:09:52;22.73;;;6.38;;
57663;SDS011;43493;53.098;6.064;2024-01-16T09:12:18;11.52;;;3.88;;
57663;SDS011;43493;53.098;6.064;2024-01-16T09:14:44;14.87;;;5.43;;
57663;SDS011;43493;53.098;6.064;2024-01-16T09:17:10;9.30;;;3.53;;
57663;SDS011;43493;53.098;6.064;2024-01-16T09:19:36;13.57;;;4.03;;
57663;SDS011;43493;53.098;6.064;2024-01-16T09:22:01;18.97;;;6.23;;
57663;SDS011;43493;53.098;6.064;2024-01-16T09:24:28;8.38;;;2.17;;
57663;SDS011;43493;53.098;6.064;2024-01-16T09:26:54;6.47;;;1.70;;
57663;SDS011;43493;53.098;6.064;2024-01-16T09:29:19;9.40;;;2.50;;
57663;SDS011;43493;53.098;6.064;2024-01-16T09:31:46;6.00;;;1.80;;
57663;SDS011;43493;53.098;6.064;2024-01-16T09:34:12;7.43;;;1.80;;
57663;SDS011;43493;53.098;6.064;2024-01-16T09:36:39;7.85;;;1.88;;
57663;SDS011;43493;53.098;6.064;2024-01-16T09:39:05;5.05;;;1.90;;
57663;SDS011;43493;53.098;6.064;2024-01-16T09:41:36;8.73;;;4.63;;
57663;SDS011;43493;53.098;6.064;2024-01-16T09:44:06;10.10;;;3.22;;
57663;SDS011;43493;53.098;6.064;2024-01-16T09:46:32;9.15;;;2.30;;
57663;SDS011;43493;53.098;6.064;2024-01-16T09:49:02;13.43;;;5.00;;
57663;SDS011;43493;53.098;6.064;2024-01-16T09:51:28;13.10;;;3.93;;
57663;SDS011;43493;53.098;6.064;2024-01-16T09:53:54;8.20;;;2.33;;
57663;SDS011;43493;53.098;6.064;2024-01-16T09:56:23;7.73;;;1.83;;
57663;SDS011;43493;53.098;6.064;2024-01-16T09:58:49;6.63;;;1.50;;
57663;SDS011;43493;53.098;6.064;2024-01-16T10:01:23;8.85;;;1.20;;
57663;SDS011;43493;53.098;6.064;2024-01-16T10:03:52;5.07;;;1.23;;
57663;SDS011;43493;53.098;6.064;2024-01-16T10:06:19;6.90;;;1.30;;
57663;SDS011;43493;53.098;6.064;2024-01-16T10:08:45;10.00;;;1.60;;
57663;SDS011;43493;53.098;6.064;2024-01-16T10:11:11;7.43;;;1.60;;
57663;SDS011;43493;53.098;6.064;2024-01-16T10:13:37;7.23;;;1.43;;
57663;SDS011;43493;53.098;6.064;2024-01-16T10:16:03;9.98;;;3.50;;
57663;SDS011;43493;53.098;6.064;2024-01-16T10:18:29;17.63;;;5.77;;
57663;SDS011;43493;53.098;6.064;2024-01-16T10:20:55;10.20;;;2.63;;
57663;SDS011;43493;53.098;6.064;2024-01-16T10:23:25;8.07;;;2.33;;
57663;SDS011;43493;53.098;6.064;2024-01-16T10:28:32;8.70;;;2.05;;
57663;SDS011;43493;53.098;6.064;2024-01-16T10:31:06;7.97;;;2.47;;
57663;SDS011;43493;53.098;6.064;2024-01-16T10:33:33;9.07;;;2.22;;
57663;SDS011;43493;53.098;6.064;2024-01-16T10:36:08;5.73;;;2.10;;
57663;SDS011;43493;53.098;6.064;2024-01-16T10:38:39;7.72;;;2.15;;
57663;SDS011;43493;53.098;6.064;2024-01-16T10:41:18;7.78;;;2.38;;
57663;SDS011;43493;53.098;6.064;2024-01-16T10:43:44;6.53;;;2.13;;
57663;SDS011;43493;53.098;6.064;2024-01-16T10:46:13;6.65;;;2.72;;
57663;SDS011;43493;53.098;6.064;2024-01-16T10:48:44;8.60;;;2.35;;
57663;SDS011;43493;53.098;6.064;2024-01-16T10:51:26;8.15;;;2.03;;
57663;SDS011;43493;53.098;6.064;2024-01-16T10:54:03;8.23;;;2.35;;
57663;SDS011;43493;53.098;6.064;2024-01-16T10:56:31;9.20;;;2.35;;
57663;SDS011;43493;53.098;6.064;2024-01-16T10:59:05;8.50;;;3.00;;
57663;SDS011;43493;53.098;6.064;2024-01-16T11:01:53;9.77;;;3.72;;
57663;SDS011;43493;53.098;6.064;2024-01-16T11:04:23;8.48;;;2.50;;
57663;SDS011;43493;53.098;6.064;2024-01-16T11:06:52;8.05;;;3.00;;
57663;SDS011;43493;53.098;6.064;2024-01-16T11:09:20;13.85;;;4.28;;
57663;SDS011;43493;53.098;6.064;2024-01-16T11:11:46;7.05;;;2.92;;
57663;SDS011;43493;53.098;6.064;2024-01-16T11:14:14;14.57;;;7.70;;
57663;SDS011;43493;53.098;6.064;2024-01-16T11:16:41;13.48;;;8.07;;
57663;SDS011;43493;53.098;6.064;2024-01-16T11:19:08;7.15;;;2.50;;
57663;SDS011;43493;53.098;6.064;2024-01-16T11:21:35;12.10;;;3.72;;
57663;SDS011;43493;53.098;6.064;2024-01-16T11:24:03;7.93;;;2.60;;
57663;SDS011;43493;53.098;6.064;2024-01-16T11:26:37;8.00;;;3.60;;
57663;SDS011;43493;53.098;6.064;2024-01-16T11:31:53;8.15;;;3.00;;
57663;SDS011;43493;53.098;6.064;2024-01-16T11:37:08;9.02;;;2.20;;
57663;SDS011;43493;53.098;6.064;2024-01-16T11:39:34;9.95;;;2.63;;
57663;SDS011;43493;53.098;6.064;2024-01-16T11:42:00;15.35;;;3.30;;
57663;SDS011;43493;53.098;6.064;2024-01-16T11:44:39;10.80;;;3.25;;
57663;SDS011;43493;53.098;6.064;2024-01-16T11:47:21;11.77;;;2.70;;
57663;SDS011;43493;53.098;6.064;2024-01-16T11:49:51;13.25;;;3.25;;
57663;SDS011;43493;53.098;6.064;2024-01-16T11:52:41;16.52;;;5.00;;
57663;SDS011;43493;53.098;6.064;2024-01-16T11:55:26;12.52;;;4.70;;
57663;SDS011;43493;53.098;6.064;2024-01-16T12:00:49;11.60;;;2.40;;
57663;SDS011;43493;53.098;6.064;2024-01-16T12:03:19;8.00;;;3.05;;
57663;SDS011;43493;53.098;6.064;2024-01-16T12:05:55;11.02;;;2.90;;
57663;SDS011;43493;53.098;6.064;2024-01-16T12:08:21;11.00;;;2.90;;
57663;SDS011;43493;53.098;6.064;2024-01-16T12:10:48;17.38;;;3.17;;
57663;SDS011;43493;53.098;6.064;2024-01-16T12:13:14;15.02;;;5.05;;
57663;SDS011;43493;53.098;6.064;2024-01-16T12:15:40;14.75;;;3.85;;
57663;SDS011;43493;53.098;6.064;2024-01-16T12:18:06;16.90;;;4.03;;
57663;SDS011;43493;53.098;6.064;2024-01-16T12:20:34;16.88;;;3.95;;
57663;SDS011;43493;53.098;6.064;2024-01-16T12:23:03;14.48;;;4.80;;
57663;SDS011;43493;53.098;6.064;2024-01-16T12:25:31;15.07;;;4.80;;
57663;SDS011;43493;53.098;6.064;2024-01-16T12:28:01;15.48;;;4.20;;
57663;SDS011;43493;53.098;6.064;2024-01-16T12:30:31;18.13;;;4.60;;
57663;SDS011;43493;53.098;6.064;2024-01-16T12:35:37;15.93;;;4.70;;
57663;SDS011;43493;53.098;6.064;2024-01-16T12:38:10;14.70;;;5.10;;
57663;SDS011;43493;53.098;6.064;2024-01-16T12:40:41;14.90;;;4.60;;
57663;SDS011;43493;53.098;6.064;2024-01-16T12:43:12;13.77;;;4.63;;
57663;SDS011;43493;53.098;6.064;2024-01-16T12:45:38;13.13;;;4.73;;
57663;SDS011;43493;53.098;6.064;2024-01-16T12:48:04;17.85;;;4.43;;
57663;SDS011;43493;53.098;6.064;2024-01-16T12:50:31;12.40;;;3.90;;
57663;SDS011;43493;53.098;6.064;2024-01-16T12:53:10;15.95;;;4.38;;
57663;SDS011;43493;53.098;6.064;2024-01-16T12:55:37;11.52;;;4.22;;
57663;SDS011;43493;53.098;6.064;2024-01-16T13:00:39;12.10;;;4.68;;
57663;SDS011;43493;53.098;6.064;2024-01-16T13:03:05;14.98;;;4.35;;
57663;SDS011;43493;53.098;6.064;2024-01-16T13:05:31;15.43;;;4.95;;
57663;SDS011;43493;53.098;6.064;2024-01-16T13:08:04;13.68;;;4.15;;
57663;SDS011;43493;53.098;6.064;2024-01-16T13:10:30;13.52;;;4.53;;
57663;SDS011;43493;53.098;6.064;2024-01-16T13:13:12;13.27;;;4.13;;
57663;SDS011;43493;53.098;6.064;2024-01-16T13:15:46;9.27;;;3.83;;
57663;SDS011;43493;53.098;6.064;2024-01-16T13:18:17;14.20;;;4.35;;
57663;SDS011;43493;53.098;6.064;2024-01-16T13:20:44;11.25;;;3.78;;
57663;SDS011;43493;53.098;6.064;2024-01-16T13:23:11;17.17;;;4.97;;
57663;SDS011;43493;53.098;6.064;2024-01-16T13:25:39;10.27;;;3.85;;
57663;SDS011;43493;53.098;6.064;2024-01-16T13:28:05;13.17;;;4.50;;
57663;SDS011;43493;53.098;6.064;2024-01-16T13:30:33;15.30;;;3.35;;
57663;SDS011;43493;53.098;6.064;2024-01-16T13:32:58;12.50;;;3.40;;
57663;SDS011;43493;53.098;6.064;2024-01-16T13:35:24;11.70;;;3.90;;
57663;SDS011;43493;53.098;6.064;2024-01-16T13:37:50;9.93;;;3.43;;
57663;SDS011;43493;53.098;6.064;2024-01-16T13:40:16;10.90;;;3.40;;
57663;SDS011;43493;53.098;6.064;2024-01-16T13:42:44;20.88;;;3.67;;
57663;SDS011;43493;53.098;6.064;2024-01-16T13:45:10;12.00;;;3.22;;
57663;SDS011;43493;53.098;6.064;2024-01-16T13:47:38;12.48;;;3.60;;
57663;SDS011;43493;53.098;6.064;2024-01-16T13:50:05;14.73;;;2.70;;
57663;SDS011;43493;53.098;6.064;2024-01-16T13:52:35;11.57;;;3.28;;
57663;SDS011;43493;53.098;6.064;2024-01-16T13:55:01;9.23;;;2.70;;
57663;SDS011;43493;53.098;6.064;2024-01-16T13:57:31;10.45;;;3.65;;
57663;SDS011;43493;53.098;6.064;2024-01-16T13:59:57;8.52;;;2.95;;
57663;SDS011;43493;53.098;6.064;2024-01-16T14:02:23;13.88;;;3.92;;
57663;SDS011;43493;53.098;6.064;2024-01-16T14:04:49;18.17;;;3.92;;
57663;SDS011;43493;53.098;6.064;2024-01-16T14:07:16;11.70;;;4.75;;
57663;SDS011;43493;53.098;6.064;2024-01-16T14:09:41;14.20;;;4.63;;
57663;SDS011;43493;53.098;6.064;2024-01-16T14:12:08;6.07;;;2.47;;
57663;SDS011;43493;53.098;6.064;2024-01-16T14:14:34;23.10;;;9.75;;
57663;SDS011;43493;53.098;6.064;2024-01-16T14:17:00;6.63;;;2.00;;
57663;SDS011;43493;53.098;6.064;2024-01-16T14:19:27;14.73;;;2.80;;
57663;SDS011;43493;53.098;6.064;2024-01-16T14:21:55;10.55;;;3.05;;
57663;SDS011;43493;53.098;6.064;2024-01-16T14:24:21;5.50;;;1.92;;
57663;SDS011;43493;53.098;6.064;2024-01-16T14:26:47;9.20;;;2.10;;
57663;SDS011;43493;53.098;6.064;2024-01-16T14:29:12;9.63;;;2.20;;
57663;SDS011;43493;53.098;6.064;2024-01-16T14:31:38;14.10;;;2.50;;
57663;SDS011;43493;53.098;6.064;2024-01-16T14:34:10;10.00;;;1.77;;
57663;SDS011;43493;53.098;6.064;2024-01-16T14:36:39;9.18;;;1.88;;
57663;SDS011;43493;53.098;6.064;2024-01-16T14:39:08;17.98;;;2.58;;
57663;SDS011;43493;53.098;6.064;2024-01-16T14:41:38;10.68;;;2.33;;
57663;SDS011;43493;53.098;6.064;2024-01-16T14:44:06;10.88;;;2.80;;
57663;SDS011;43493;53.098;6.064;2024-01-16T14:46:34;10.68;;;2.75;;
57663;SDS011;43493;53.098;6.064;2024-01-16T14:49:00;12.20;;;2.80;;
57663;SDS011;43493;53.098;6.064;2024-01-16T14:51:27;11.48;;;2.42;;
57663;SDS011;43493;53.098;6.064;2024-01-16T14:53:53;9.23;;;2.13;;
57663;SDS011;43493;53.098;6.064;2024-01-16T14:56:18;11.20;;;2.70;;